CNH67B UKFF-UKOH
Flight info
| Callsign | CNH67B |
|---|---|
| Flight time | N/A |
| Altitude | 20000 |
| Route | DCT |
| Aircraft | IL76/H-SDFGRWY/S |
Departure
| Time | 2026-04-25 20:16 |
|---|---|
| Airport | Simferopol International Airport (UKFF) |
Arrival
| Time | N/A |
|---|---|
| Airport | Kherson International Airport (UKOH) |
| Time | Latitude | Longitude | Altitude | Speed | Heading |
|---|---|---|---|---|---|
| 2026-04-25 20:15 | 45.03258 | 33.97619 | 976 ft | 170 kts | 41° |
| 2026-04-25 20:15 | 45.06834 | 33.97842 | 1189 ft | 185 kts | 51° |
| 2026-04-25 20:16 | 45.04765 | 33.98451 | 855 ft | 172 kts | 262° |
| 2026-04-25 20:16 | 45.05255 | 33.92691 | 9146 ft | 90 kts | 268° |
| 2026-04-25 20:16 | 45.05203 | 33.88081 | 5936 ft | 163 kts | 303° |
| 2026-04-25 20:16 | 45.06528 | 33.90017 | 3805 ft | 252 kts | 95° |
| 2026-04-25 20:17 | 45.07538 | 33.93879 | 1688 ft | 229 kts | 246° |
| 2026-04-25 20:17 | 45.05655 | 33.92242 | 1855 ft | 260 kts | 183° |
| 2026-04-25 20:17 | 45.03727 | 33.92591 | 1864 ft | 289 kts | 181° |
| 2026-04-25 20:17 | 44.99907 | 33.91518 | 3093 ft | 269 kts | 173° |
| 2026-04-25 20:18 | 44.99970 | 33.95767 | 2412 ft | 263 kts | 23° |
| 2026-04-25 20:18 | 45.08676 | 33.98514 | 2231 ft | 289 kts | 353° |
| 2026-04-25 20:18 | 45.09053 | 33.88323 | 5076 ft | 231 kts | 134° |
| 2026-04-25 20:18 | 45.03682 | 34.03858 | 12105 ft | 206 kts | 96° |
| 2026-04-25 20:19 | 45.07621 | 34.22343 | 15067 ft | 170 kts | 23° |
| 2026-04-25 20:19 | 45.11942 | 34.11141 | 2657 ft | 148 kts | 227° |
| 2026-04-25 20:19 | 45.01181 | 33.96359 | 1263 ft | 115 kts | 238° |
| 2026-04-25 20:19 | 45.00829 | 33.85872 | 461 ft | 59 kts | 311° |
| 2026-04-25 20:20 | 45.01418 | 33.84405 | 411 ft | 0 kts | 348° |
| 2026-04-25 20:20 | 45.01825 | 33.84246 | 1907 ft | 183 kts | 344° |
| 2026-04-25 20:20 | 45.04768 | 33.93567 | 829 ft | 209 kts | 106° |
| 2026-04-25 20:21 | 45.01791 | 34.00291 | 19211 ft | 120 kts | 144° |
| 2026-04-25 20:21 | 44.92943 | 34.08879 | 11915 ft | 167 kts | 156° |
| 2026-04-25 20:21 | 44.85182 | 34.11958 | 0 ft | 112 kts | 342° |
| 2026-04-25 20:21 | 45.26765 | 33.92464 | 0 ft | 500 kts | 341° |
| 2026-04-25 20:22 | 45.78455 | 33.67811 | 0 ft | 550 kts | 341° |
| 2026-04-25 20:22 | 46.12882 | 33.51121 | 0 ft | 649 kts | 341° |
| 2026-04-25 20:22 | 46.77082 | 33.20068 | 43594 ft | 751 kts | 349° |
| 2026-04-25 20:22 | 47.16926 | 33.15134 | 44975 ft | 455 kts | 353° |
| 2026-04-25 20:23 | 47.65339 | 33.06124 | 29246 ft | 438 kts | 351° |
| 2026-04-25 20:23 | 47.68313 | 33.05271 | 27764 ft | 440 kts | 348° |
| 2026-04-25 20:23 | 47.71239 | 33.04131 | 26580 ft | 437 kts | 344° |
| 2026-04-25 20:23 | 47.90449 | 32.96669 | 22080 ft | 418 kts | 11° |
| 2026-04-25 20:24 | 47.92963 | 32.98749 | 19477 ft | 454 kts | 48° |
| 2026-04-25 20:24 | 47.94040 | 33.02751 | 14961 ft | 462 kts | 86° |
| 2026-04-25 20:24 | 47.93823 | 33.06521 | 9133 ft | 427 kts | 65° |
| 2026-04-25 20:24 | 47.95134 | 33.10049 | 8758 ft | 352 kts | 57° |
| 2026-04-25 20:25 | 47.95936 | 33.12837 | 8682 ft | 277 kts | 133° |
| 2026-04-25 20:25 | 47.75116 | 33.12176 | 0 ft | 558 kts | 182° |
| 2026-04-25 20:25 | 47.11827 | 33.08615 | 0 ft | 615 kts | 182° |
| 2026-04-25 20:25 | 46.45508 | 33.04944 | 0 ft | 687 kts | 182° |
| 2026-04-25 20:26 | 45.74840 | 33.41151 | 0 ft | 716 kts | 160° |
| 2026-04-25 20:26 | 45.20078 | 33.71666 | 0 ft | 793 kts | 57° |
| 2026-04-25 20:26 | 45.20424 | 33.72899 | 0 ft | 808 kts | 47° |
| 2026-04-25 20:26 | 45.27333 | 33.71428 | 0 ft | 822 kts | 355° |
| 2026-04-25 20:27 | 45.35031 | 33.59208 | 0 ft | 835 kts | 271° |
| 2026-04-25 20:27 | 45.35865 | 33.53179 | 0 ft | 847 kts | 308° |
| 2026-04-25 20:27 | 45.36009 | 33.50100 | 0 ft | 855 kts | 309° |
| 2026-04-25 20:27 | 45.35929 | 33.46577 | 0 ft | 855 kts | 7° |
| 2026-04-25 20:28 | 45.38546 | 33.41229 | 91094 ft | 834 kts | 274° |
| 2026-04-25 20:28 | 45.43125 | 33.34325 | 78187 ft | 779 kts | 257° |
| 2026-04-25 20:28 | 45.40946 | 33.35125 | 65677 ft | 684 kts | 60° |
| 2026-04-25 20:28 | 45.43409 | 33.34334 | 54218 ft | 531 kts | 72° |
| 2026-04-25 20:29 | 45.46219 | 33.26268 | 23364 ft | 467 kts | 220° |
| 2026-04-25 20:29 | 45.45311 | 33.30542 | 15097 ft | 418 kts | 146° |
| 2026-04-25 20:29 | 45.43098 | 33.32660 | 16803 ft | 358 kts | 146° |
| 2026-04-25 20:29 | 45.41080 | 33.34584 | 17225 ft | 349 kts | 147° |
| 2026-04-25 20:30 | 45.40700 | 33.44431 | 21428 ft | 487 kts | 68° |
| 2026-04-25 20:30 | 45.39335 | 33.49575 | 20412 ft | 411 kts | 115° |
| 2026-04-25 20:30 | 45.37296 | 33.55689 | 20906 ft | 393 kts | 115° |
| 2026-04-25 20:30 | 45.35857 | 33.60901 | 20215 ft | 397 kts | 105° |
| 2026-04-25 20:31 | 45.33940 | 33.69115 | 19904 ft | 390 kts | 109° |
| 2026-04-25 20:31 | 45.32259 | 33.75552 | 21002 ft | 324 kts | 111° |
| 2026-04-25 20:31 | 45.30865 | 33.80336 | 21850 ft | 278 kts | 110° |
| 2026-04-25 20:31 | 45.30247 | 33.82864 | 22402 ft | 257 kts | 111° |